首页
METAR-TAF:

METAR-TAF

机场 :

朗芒芽地, 菲律宾

纬度: 09-20-01N, 经度: 123-18-02E, 海拔: 5米

当前天气观测

该预报发布于2小时和53分钟前的18:00 UTC
风速4节,风向西北
温度 26°C
湿度 89%
气压 1010 hPa
能见度10公里或以上
少量云层高于1500英尺

METAR: RPVD 131800Z 32004KT 9999 FEW015 26/24 Q1010 RMK A2983

时间: 04:53 (20:53 UTC)

预报

该预报发布于3小时和53分钟前的17:00 UTC
预报有效从13日的 18点(UTC)到 14日的 18点(UTC)
风速8节,风向东北
能见度10公里或以上
少量云层高于1500英尺
散云层高于8000英尺
短暂存在
从 13日的 18点(UTC)到 13日的 24点(UTC)
风速4节,风向西北
能見度: 9000
少量云层高于1400英尺, 积雨云.
散云层高于1500英尺
多云层高于8000英尺
小阵雨

TAF: RPVD 131700Z 1318/1418 04008KT 9999 FEW015 SCT080 TEMPO 1318/1324 32004KT 9000 -SHRA FEW014CB SCT015 BKN080

超过4000个机场的气象观测和天气预报(METAR&TAF报告)。

可查询的气象台以黄色和红色小点在地图上表示。

将鼠标移到小点上方,可查看气象台名称。

然后点击查看天气观测和预报。

如需切换地图:点击带黑十字的绿色按钮放大地图;点击带横线的绿色按钮缩小地图;或者点击绿色箭头查看邻近地区的地图。


METAR-TAF: